Time;durP1;ratioP1;P1;durP2;ratioP2;P2;SDS_P1;SDS_P2;PMS_P1;PMS_P2;Temp;Humidity;BMP_temperature;BMP_pressure;BME280_temperature;BME280_humidity;BME280_pressure;Samples;Min_cycle;Max_cycle;Signal;HPM_P1;HPM_P2
2021/11/07 00:00:44;;;;;;;;;45.00;39.00;;;;;9.18;58.00;102104.09;4958129;28;45299;-50
2021/11/07 00:10:50;;;;;;;;;43.25;35.50;;;;;9.17;58.29;102102.31;4967389;28;45485;-47
2021/11/07 00:13:20;;;;;;;;;35.50;34.25;;;;;9.17;58.43;102090.94;4974184;28;45381;-47
2021/11/07 00:15:46;;;;;;;;;47.00;39.75;;;;;9.18;58.45;102105.81;4964119;28;45332;-48
2021/11/07 00:18:18;;;;;;;;;44.75;36.75;;;;;9.19;58.49;102099.72;4964149;28;46332;-54
2021/11/07 00:21:08;;;;;;;;;45.50;36.25;;;;;9.19;58.58;102087.47;4963958;28;45248;-45
2021/11/07 00:36:42;;;;;;;;;39.50;34.25;;;;;9.31;58.82;102071.03;4994912;28;45581;-46
2021/11/07 00:39:13;;;;;;;;;33.50;29.75;;;;;9.32;59.14;102070.16;4971966;28;46711;-47
2021/11/07 00:44:08;;;;;;;;;46.00;36.00;;;;;9.39;58.73;102076.34;4963997;28;45248;-46
2021/11/07 00:46:41;;;;;;;;;39.50;35.75;;;;;9.38;58.66;102080.75;4985924;28;45275;-50
2021/11/07 00:49:10;;;;;;;;;36.25;33.75;;;;;9.43;58.61;102081.69;5022723;28;45410;-47
2021/11/07 00:57:16;;;;;;;;;42.75;36.00;;;;;9.49;59.01;102077.34;4973606;28;45239;-46
2021/11/07 01:02:32;;;;;;;;;34.00;33.00;;;;;9.51;58.51;102071.25;4963771;28;45252;-47
2021/11/07 01:04:59;;;;;;;;;41.25;35.00;;;;;9.55;58.97;102069.56;4963770;28;45410;-55
2021/11/07 01:07:25;;;;;;;;;40.75;37.25;;;;;9.57;59.04;102057.31;4963417;28;45272;-51
2021/11/07 01:09:52;;;;;;;;;36.00;32.25;;;;;9.60;58.87;102065.25;4963856;28;46327;-45
2021/11/07 01:12:18;;;;;;;;;36.00;34.25;;;;;9.61;58.82;102056.50;4978423;28;45240;-47
2021/11/07 01:14:44;;;;;;;;;32.25;32.25;;;;;9.64;58.85;102045.16;4983030;28;45354;-47
2021/11/07 01:17:09;;;;;;;;;35.25;32.75;;;;;9.65;58.94;102025.91;4982949;28;45233;-46
2021/11/07 01:19:36;;;;;;;;;39.75;34.75;;;;;9.69;58.86;102031.19;4980122;27;46376;-47
2021/11/07 01:22:04;;;;;;;;;35.00;30.50;;;;;9.69;58.78;102031.19;4979170;28;45368;-49
2021/11/07 01:24:36;;;;;;;;;40.50;34.75;;;;;9.73;58.78;102029.50;4978347;28;45340;-48
2021/11/07 01:27:21;;;;;;;;;37.50;32.75;;;;;9.74;58.88;102021.63;4962283;27;46364;-51
2021/11/07 01:29:51;;;;;;;;;36.25;33.25;;;;;9.78;58.85;102005.91;4959862;28;45345;-48
2021/11/07 01:32:19;;;;;;;;;38.00;31.25;;;;;9.79;59.04;101999.81;4959964;28;45186;-48
2021/11/07 01:37:18;;;;;;;;;35.00;29.75;;;;;9.76;58.90;101991.03;4994658;28;45315;-47
2021/11/07 01:42:20;;;;;;;;;29.50;27.00;;;;;9.85;59.20;101994.59;4959788;28;45393;-46
2021/11/07 01:44:55;;;;;;;;;29.75;29.25;;;;;9.87;59.05;101987.63;4959746;28;45319;-49
2021/11/07 01:47:22;;;;;;;;;29.25;26.75;;;;;9.87;59.21;101980.63;4959649;28;45407;-51
2021/11/07 01:49:48;;;;;;;;;30.50;28.75;;;;;9.89;59.12;101980.63;5037193;28;46905;-48
2021/11/07 01:52:15;;;;;;;;;28.00;25.75;;;;;9.88;59.29;101979.75;4984476;28;45441;-46
2021/11/07 01:54:54;;;;;;;;;30.50;28.00;;;;;9.91;59.19;101989.38;4966425;28;45300;-46
2021/11/07 01:57:23;;;;;;;;;31.75;26.25;;;;;9.91;59.21;101971.00;4986740;28;45283;-50
2021/11/07 01:59:54;;;;;;;;;33.75;32.50;;;;;9.94;59.12;101965.78;4971518;28;45206;-49
2021/11/07 02:02:22;;;;;;;;;28.00;25.25;;;;;9.95;59.32;101966.66;4985465;28;45387;-49
2021/11/07 02:04:48;;;;;;;;;32.25;27.25;;;;;9.97;59.36;101970.19;4979164;28;45311;-50
2021/11/07 02:07:14;;;;;;;;;32.50;28.75;;;;;10.00;59.30;101972.81;4965547;28;45428;-49
2021/11/07 02:09:40;;;;;;;;;32.25;29.25;;;;;9.98;59.36;101966.69;4960052;28;45273;-49
2021/11/07 02:12:07;;;;;;;;;34.25;28.75;;;;;10.03;59.30;101973.72;4972198;28;45241;-47
2021/11/07 02:14:33;;;;;;;;;28.00;27.00;;;;;10.03;59.23;101967.63;4959625;28;45250;-51
2021/11/07 02:16:59;;;;;;;;;29.75;27.50;;;;;10.05;59.21;101969.38;4959224;28;45428;-48
2021/11/07 02:19:25;;;;;;;;;34.50;29.50;;;;;10.09;59.21;101975.53;4959493;28;45447;-50
2021/11/07 02:21:50;;;;;;;;;26.75;25.00;;;;;10.09;59.19;101970.28;4958993;28;45401;-50
2021/11/07 02:24:17;;;;;;;;;29.50;26.50;;;;;10.09;59.00;101958.03;4959509;28;45251;-49
2021/11/07 02:26:59;;;;;;;;;32.25;28.50;;;;;10.10;59.45;101951.03;4959199;28;45390;-50
2021/11/07 02:29:27;;;;;;;;;36.00;32.75;;;;;10.08;59.52;101945.75;4959119;28;46400;-47
2021/11/07 02:31:55;;;;;;;;;30.75;27.75;;;;;10.10;59.29;101943.16;4957809;27;45332;-46
2021/11/07 02:34:21;;;;;;;;;32.50;30.50;;;;;10.11;59.38;101937.00;4959356;28;45313;-47
2021/11/07 02:36:46;;;;;;;;;29.75;28.00;;;;;10.11;59.43;101944.91;4996147;28;45484;-51
2021/11/07 02:39:15;;;;;;;;;34.25;30.25;;;;;10.13;59.65;101931.78;4987483;28;45316;-51
2021/11/07 02:41:41;;;;;;;;;31.00;27.75;;;;;10.14;59.51;101937.06;4960859;28;45502;-51
2021/11/07 02:44:06;;;;;;;;;31.00;28.75;;;;;10.15;59.48;101927.41;4959119;28;45320;-52
2021/11/07 02:46:32;;;;;;;;;36.50;28.75;;;;;10.17;59.71;101928.31;4959039;28;45521;-50
2021/11/07 02:49:00;;;;;;;;;32.00;28.50;;;;;10.18;59.45;101916.94;5009960;28;45496;-49
2021/11/07 02:51:29;;;;;;;;;27.50;25.75;;;;;10.19;59.67;101921.34;4993911;27;45157;-50
2021/11/07 02:53:55;;;;;;;;;26.25;24.00;;;;;10.20;59.48;101915.19;4959247;28;45378;-51
2021/11/07 02:56:21;;;;;;;;;28.25;26.75;;;;;10.23;59.49;101920.47;4958855;28;45496;-50
2021/11/07 02:58:47;;;;;;;;;27.00;21.75;;;;;10.24;59.75;101911.72;4958627;28;46212;-50
2021/11/07 03:01:18;;;;;;;;;29.50;26.25;;;;;10.23;59.81;101907.34;4989632;28;45268;-51
2021/11/07 03:03:44;;;;;;;;;27.50;26.25;;;;;10.25;59.66;101910.84;5014910;28;45343;-47
2021/11/07 03:06:09;;;;;;;;;28.50;27.25;;;;;10.28;59.82;101910.00;4960510;28;45228;-50
2021/11/07 03:08:40;;;;;;;;;24.75;22.50;;;;;10.27;59.89;101905.63;4958772;28;46902;-48
2021/11/07 03:11:06;;;;;;;;;27.00;24.75;;;;;10.33;59.65;101910.91;4964227;28;45514;-47
2021/11/07 03:13:31;;;;;;;;;28.50;25.50;;;;;10.35;59.57;101907.41;4978142;28;45375;-49
2021/11/07 03:16:05;;;;;;;;;24.00;23.50;;;;;10.31;59.60;101900.34;4978116;28;45252;-49
2021/11/07 03:18:34;;;;;;;;;23.50;23.00;;;;;10.43;59.68;101903.94;4977995;28;46189;-51
2021/11/07 03:21:00;;;;;;;;;23.25;22.50;;;;;10.43;59.55;101888.19;4965194;28;45359;-51
2021/11/07 03:23:25;;;;;;;;;25.50;23.75;;;;;10.46;59.50;101893.47;4977957;28;45382;-51
2021/11/07 03:26:01;;;;;;;;;25.25;24.00;;;;;10.49;60.06;101898.72;4976835;28;45848;-47
2021/11/07 03:28:27;;;;;;;;;26.25;25.25;;;;;10.51;59.74;101897.88;4977693;28;46340;-49
2021/11/07 03:31:08;;;;;;;;;25.25;25.25;;;;;10.54;59.89;101891.75;4978007;28;45334;-49
2021/11/07 03:33:42;;;;;;;;;27.00;26.00;;;;;10.57;59.96;101899.66;4963738;28;45411;-50
2021/11/07 03:36:08;;;;;;;;;19.75;18.00;;;;;10.59;59.82;101891.78;4965898;28;45317;-49
2021/11/07 03:38:35;;;;;;;;;22.50;20.00;;;;;10.61;59.82;101898.78;4989524;28;47083;-49
2021/11/07 03:41:03;;;;;;;;;23.00;21.25;;;;;10.62;60.03;101895.28;4965971;28;45333;-50
2021/11/07 03:43:29;;;;;;;;;24.25;21.25;;;;;10.65;59.88;101897.06;4957584;28;45339;-51
2021/11/07 03:45:56;;;;;;;;;24.75;22.75;;;;;10.65;60.08;101899.69;4958256;28;45236;-47
2021/11/07 03:48:22;;;;;;;;;20.50;19.25;;;;;10.62;60.51;101899.69;4984200;28;45289;-45
2021/11/07 03:50:48;;;;;;;;;24.25;23.50;;;;;10.65;60.28;101904.94;5022087;27;45305;-47
2021/11/07 03:53:15;;;;;;;;;25.50;24.50;;;;;10.65;60.48;101900.53;4960141;28;45505;-47
2021/11/07 03:55:40;;;;;;;;;23.50;19.50;;;;;10.64;60.54;101890.03;4958321;28;45376;-48
2021/11/07 03:58:06;;;;;;;;;23.50;21.75;;;;;10.65;60.64;101889.16;4988911;28;45439;-49
2021/11/07 04:00:32;;;;;;;;;28.50;27.00;;;;;10.65;60.40;101889.16;4966343;28;45321;-48
2021/11/07 04:02:58;;;;;;;;;23.25;19.00;;;;;10.53;60.77;101872.47;4992946;28;45323;-49
2021/11/07 04:05:24;;;;;;;;;16.75;15.00;;;;;10.63;60.73;101889.16;5013422;28;45406;-48
2021/11/07 04:07:50;;;;;;;;;19.50;18.00;;;;;10.60;60.75;101886.50;4958544;28;48140;-47
2021/11/07 04:10:16;;;;;;;;;21.00;21.00;;;;;10.60;60.95;101880.38;4958291;28;45355;-48
2021/11/07 04:12:42;;;;;;;;;23.75;19.75;;;;;10.61;60.94;101880.38;4970913;28;45173;-49
2021/11/07 04:15:09;;;;;;;;;23.75;21.50;;;;;10.61;60.78;101877.75;4964774;28;45542;-47
2021/11/07 04:17:35;;;;;;;;;25.00;22.00;;;;;10.60;60.83;101869.88;4970578;28;46081;-45
2021/11/07 04:20:01;;;;;;;;;22.75;22.50;;;;;10.59;60.92;101874.25;4957542;28;45336;-49
2021/11/07 04:22:26;;;;;;;;;26.50;24.25;;;;;10.60;60.97;101867.25;4997632;28;45338;-47
2021/11/07 04:24:52;;;;;;;;;19.25;17.25;;;;;10.59;61.09;101855.88;5008929;28;45419;-46
2021/11/07 04:27:17;;;;;;;;;17.50;17.00;;;;;10.57;61.15;101866.34;4989835;28;46222;-46
2021/11/07 04:29:42;;;;;;;;;18.00;15.00;;;;;10.51;61.40;101861.06;4964014;28;45322;-48
2021/11/07 04:32:08;;;;;;;;;18.00;16.50;;;;;10.54;61.17;101866.34;4957791;28;45376;-46
2021/11/07 04:34:33;;;;;;;;;23.25;18.00;;;;;10.54;61.23;101873.34;4956683;28;45371;-46
2021/11/07 04:37:01;;;;;;;;;26.25;20.50;;;;;10.52;61.25;101868.09;4993067;28;46090;-49
2021/11/07 04:39:27;;;;;;;;;18.50;18.50;;;;;10.50;61.46;101866.31;4964798;28;45338;-47
2021/11/07 04:41:52;;;;;;;;;18.00;17.75;;;;;10.51;61.56;101863.69;4999748;28;45258;-49
2021/11/07 04:44:18;;;;;;;;;19.75;16.75;;;;;10.52;61.51;101861.97;5006029;28;45516;-46
2021/11/07 04:46:43;;;;;;;;;19.50;17.25;;;;;10.53;61.62;101874.25;4958131;28;45289;-46
2021/11/07 04:49:09;;;;;;;;;18.25;16.75;;;;;10.52;61.61;101861.97;5018175;28;45411;-49
2021/11/07 04:51:34;;;;;;;;;19.25;19.00;;;;;10.53;61.66;101855.84;4983983;27;45297;-50
2021/11/07 04:54:00;;;;;;;;;16.00;16.00;;;;;10.51;61.65;101850.56;4957882;28;45442;-47
2021/11/07 04:56:26;;;;;;;;;20.75;18.75;;;;;10.50;61.85;101838.31;4959062;28;47039;-46
2021/11/07 04:58:52;;;;;;;;;8.50;5.75;;;;;10.51;61.72;101847.94;4960264;28;45405;-47
2021/11/07 05:01:17;;;;;;;;;20.25;18.25;;;;;10.51;61.85;101831.28;4960336;28;45493;-49
2021/11/07 05:03:43;;;;;;;;;17.00;15.75;;;;;10.51;61.88;101820.78;4960325;28;45414;-50
2021/11/07 05:06:08;;;;;;;;;15.25;15.25;;;;;10.50;62.01;101814.66;4960139;28;46238;-49
2021/11/07 05:08:34;;;;;;;;;24.00;18.25;;;;;10.47;61.83;101816.41;4960535;28;45430;-49
2021/11/07 05:11:00;;;;;;;;;19.75;18.75;;;;;10.44;62.06;101819.91;4965715;28;45158;-47
2021/11/07 05:13:25;;;;;;;;;19.50;19.00;;;;;10.46;62.59;101814.63;4967997;28;45498;-50
2021/11/07 05:15:51;;;;;;;;;14.25;14.25;;;;;10.47;62.25;101816.41;4959980;28;46291;-48
2021/11/07 05:18:18;;;;;;;;;17.00;15.75;;;;;10.46;62.34;101806.75;4960191;28;45317;-47
2021/11/07 05:20:45;;;;;;;;;16.75;16.75;;;;;10.43;62.34;101801.47;4959939;28;45450;-49
2021/11/07 05:23:11;;;;;;;;;21.50;18.25;;;;;10.44;62.35;101801.50;4960008;28;45403;-44
2021/11/07 05:25:37;;;;;;;;;19.25;17.00;;;;;10.44;62.51;101790.09;4982935;28;47334;-49
2021/11/07 05:28:02;;;;;;;;;13.50;12.50;;;;;10.45;62.40;101790.09;4986703;28;45421;-45
2021/11/07 05:30:27;;;;;;;;;16.00;16.00;;;;;10.40;62.79;101800.59;4972497;28;45434;-46
2021/11/07 05:32:53;;;;;;;;;16.75;14.50;;;;;10.38;62.96;101796.22;4986763;28;45392;-50
2021/11/07 05:35:19;;;;;;;;;14.00;14.00;;;;;10.39;62.85;101804.09;4960192;28;46146;-47
2021/11/07 05:37:49;;;;;;;;;15.75;14.75;;;;;10.33;63.03;101809.28;4998069;28;45306;-49
2021/11/07 05:40:14;;;;;;;;;16.75;15.50;;;;;10.35;62.91;101807.56;4979569;28;45392;-48
2021/11/07 05:42:40;;;;;;;;;16.25;14.50;;;;;10.34;63.09;101803.19;4966055;28;45324;-46
2021/11/07 05:45:06;;;;;;;;;19.50;16.75;;;;;10.35;63.21;101798.78;4959777;28;45431;-49
2021/11/07 05:47:32;;;;;;;;;16.50;16.50;;;;;10.34;63.29;101790.03;4958346;28;46102;-52
2021/11/07 05:49:58;;;;;;;;;16.00;15.00;;;;;10.36;63.23;101792.69;5035236;28;45291;-48
2021/11/07 05:52:24;;;;;;;;;16.50;15.75;;;;;10.33;63.20;101777.75;4959869;28;45529;-49
2021/11/07 05:54:49;;;;;;;;;17.00;15.25;;;;;10.38;63.30;101790.97;4959409;28;46216;-47
2021/11/07 05:57:15;;;;;;;;;18.75;17.75;;;;;10.38;63.31;101796.22;4959579;28;45253;-50
2021/11/07 05:59:40;;;;;;;;;16.50;16.50;;;;;10.42;63.18;101795.34;4990266;28;45801;-50
2021/11/07 06:02:06;;;;;;;;;13.25;13.25;;;;;10.42;63.24;101791.84;4968023;28;45468;-49
2021/11/07 06:04:31;;;;;;;;;23.00;16.25;;;;;10.45;63.17;101797.09;4959394;28;46299;-48
2021/11/07 06:06:57;;;;;;;;;16.00;15.75;;;;;10.43;63.43;101791.84;4981713;28;45215;-47
2021/11/07 06:09:23;;;;;;;;;19.25;18.75;;;;;10.48;63.27;101798.00;4976005;28;45361;-47
2021/11/07 06:11:48;;;;;;;;;18.25;16.50;;;;;10.49;63.48;101798.88;4971170;28;45538;-48
2021/11/07 06:14:15;;;;;;;;;18.75;17.00;;;;;10.48;63.25;101802.38;4960516;28;46721;-48
2021/11/07 06:16:41;;;;;;;;;16.00;15.00;;;;;10.51;63.51;101794.50;4959370;28;45326;-47
2021/11/07 06:19:07;;;;;;;;;20.00;19.75;;;;;10.53;63.29;101798.03;4959356;28;45391;-46
2021/11/07 06:21:35;;;;;;;;;16.50;16.50;;;;;10.57;63.22;101802.41;4959074;28;45500;-48
2021/11/07 06:24:00;;;;;;;;;17.50;17.50;;;;;10.59;63.53;101811.19;4957820;28;45952;-49
2021/11/07 06:26:25;;;;;;;;;16.50;16.00;;;;;10.61;63.47;101812.03;4957999;28;45304;-47
2021/11/07 06:28:52;;;;;;;;;17.00;16.00;;;;;10.63;63.24;101809.41;4959332;28;45300;-47
2021/11/07 06:31:22;;;;;;;;;19.50;17.25;;;;;10.65;63.23;101805.91;4959277;28;45314;-48
2021/11/07 06:33:48;;;;;;;;;17.50;14.50;;;;;10.63;63.29;101802.41;4965656;28;45448;-50
2021/11/07 06:36:13;;;;;;;;;22.00;17.75;;;;;10.67;63.40;101804.19;4991223;28;45260;-50
2021/11/07 06:38:39;;;;;;;;;15.25;15.00;;;;;10.69;63.36;101807.69;4972065;28;45301;-49
2021/11/07 06:41:04;;;;;;;;;17.50;16.00;;;;;10.71;63.17;101805.94;4968338;28;45232;-49
2021/11/07 06:43:29;;;;;;;;;16.00;16.00;;;;;10.71;63.16;101792.78;4971663;28;45239;-49
2021/11/07 06:45:55;;;;;;;;;18.75;16.00;;;;;10.75;63.22;101791.03;4959150;28;45267;-46
2021/11/07 06:48:20;;;;;;;;;20.50;17.25;;;;;10.76;63.29;101784.91;4978842;28;45289;-48
2021/11/07 06:50:46;;;;;;;;;19.00;16.00;;;;;10.76;63.45;101787.53;5025235;27;45419;-50
2021/11/07 06:53:12;;;;;;;;;17.50;17.25;;;;;10.78;63.39;101774.38;4961222;28;45259;-46
2021/11/07 06:55:37;;;;;;;;;18.25;16.00;;;;;10.79;63.46;101773.53;4965113;28;45334;-47
2021/11/07 06:58:03;;;;;;;;;18.00;18.00;;;;;10.80;63.45;101770.03;4971930;28;45329;-48
2021/11/07 07:00:29;;;;;;;;;17.50;17.00;;;;;10.83;63.35;101775.28;4958702;28;45584;-49
2021/11/07 07:02:54;;;;;;;;;19.75;15.25;;;;;10.84;63.50;101774.41;4958617;28;45982;-45
2021/11/07 07:05:20;;;;;;;;;20.25;18.50;;;;;10.85;63.60;101773.53;4958474;28;45351;-50
2021/11/07 07:07:52;;;;;;;;;19.50;18.25;;;;;10.87;63.46;101769.16;4958946;28;45269;-49
2021/11/07 07:10:31;;;;;;;;;18.50;17.75;;;;;10.87;63.66;101766.53;4959293;28;45533;-49
2021/11/07 07:15:30;;;;;;;;;20.00;17.25;;;;;10.89;63.45;101764.75;4971555;28;45240;-48
2021/11/07 07:18:07;;;;;;;;;17.25;17.00;;;;;10.88;63.64;101766.53;4957890;28;45471;-48
2021/11/07 07:20:49;;;;;;;;;19.50;18.75;;;;;10.91;63.71;101762.16;4958297;28;45399;-48
2021/11/07 07:34:02;;;;;;;;;21.25;19.00;;;;;10.87;64.23;101782.31;4962168;28;45304;-48
2021/11/07 07:36:28;;;;;;;;;15.25;13.50;;;;;10.88;64.15;101773.56;4971288;28;45289;-46
2021/11/07 07:38:54;;;;;;;;;19.00;17.00;;;;;10.88;64.45;101781.44;4977833;28;45204;-46
2021/11/07 07:41:19;;;;;;;;;16.75;15.00;;;;;10.84;64.58;101787.56;4977780;28;45332;-50
2021/11/07 07:43:45;;;;;;;;;20.50;19.75;;;;;10.83;64.70;101780.53;4977371;28;45520;-51
2021/11/07 07:46:12;;;;;;;;;20.00;17.25;;;;;10.83;64.66;101799.84;4966793;28;45465;-48
2021/11/07 07:48:41;;;;;;;;;19.25;18.25;;;;;10.82;64.41;101784.94;4974332;28;45352;-48
2021/11/07 07:51:09;;;;;;;;;21.75;18.50;;;;;10.84;64.75;101783.19;4977314;28;45440;-45
2021/11/07 07:53:34;;;;;;;;;23.50;18.75;;;;;10.78;64.83;101779.66;4977433;28;45950;-46
2021/11/07 07:56:00;;;;;;;;;19.75;18.00;;;;;10.87;64.65;101791.06;4976058;28;45255;-51
2021/11/07 07:58:26;;;;;;;;;24.00;21.00;;;;;10.85;64.92;101794.56;4977361;28;45237;-47
2021/11/07 08:00:53;;;;;;;;;19.75;18.00;;;;;10.87;65.00;101795.47;4977303;27;45249;-47
2021/11/07 08:03:19;;;;;;;;;20.50;19.00;;;;;10.86;64.83;101783.19;4968199;28;46281;-45
2021/11/07 08:05:45;;;;;;;;;19.00;19.00;;;;;10.90;64.79;101774.41;4957674;28;45725;-51
2021/11/07 08:08:10;;;;;;;;;20.25;17.25;;;;;10.91;64.67;101770.03;4954117;28;45308;-51
2021/11/07 08:10:36;;;;;;;;;17.50;17.50;;;;;10.89;65.10;101772.66;4959990;28;45540;-51
2021/11/07 08:13:01;;;;;;;;;22.75;19.25;;;;;10.96;64.82;101782.31;4956378;28;46867;-51
2021/11/07 08:15:27;;;;;;;;;18.50;17.50;;;;;10.97;64.77;101773.53;4957913;28;45206;-59
2021/11/07 08:17:52;;;;;;;;;24.75;19.75;;;;;11.00;64.91;101770.91;4958113;28;45434;-50
2021/11/07 08:20:19;;;;;;;;;19.00;17.25;;;;;11.01;64.93;101764.78;4957505;28;45547;-53
2021/11/07 08:22:44;;;;;;;;;20.75;19.25;;;;;11.06;64.98;101775.31;4957709;28;46214;-62
2021/11/07 08:25:12;;;;;;;;;20.25;18.00;;;;;11.09;65.02;101780.56;4957593;28;45678;-48
2021/11/07 08:27:44;;;;;;;;;18.25;17.75;;;;;11.08;65.03;101784.09;4956567;28;45435;-51
2021/11/07 08:30:11;;;;;;;;;23.00;21.00;;;;;11.10;65.02;101778.81;4960532;28;45364;-48
2021/11/07 08:32:37;;;;;;;;;21.75;21.00;;;;;11.14;65.16;101780.56;4959140;28;46133;-50
2021/11/07 08:35:03;;;;;;;;;23.00;20.50;;;;;11.14;65.10;101768.28;4963244;28;45323;-52
2021/11/07 08:37:34;;;;;;;;;19.25;17.50;;;;;11.19;65.36;101770.91;5004346;28;45388;-50
2021/11/07 08:40:02;;;;;;;;;18.00;18.00;;;;;11.22;65.05;101761.28;4962645;28;45442;-51
2021/11/07 08:42:35;;;;;;;;;18.00;16.75;;;;;11.24;65.18;101757.78;4960330;28;46203;-51
2021/11/07 09:09:37;;;;;;;;;18.25;16.75;;;;;11.54;65.31;101731.38;5055615;28;45494;-48
2021/11/07 09:12:03;;;;;;;;;19.50;18.50;;;;;11.60;65.33;101740.19;4993273;28;45289;-48
2021/11/07 09:14:37;;;;;;;;;18.25;16.50;;;;;11.61;65.48;101724.38;4971892;28;45358;-47
2021/11/07 09:17:11;;;;;;;;;20.00;19.00;;;;;11.65;65.44;101726.09;4982488;28;45264;-51
2021/11/07 09:19:39;;;;;;;;;19.75;17.25;;;;;11.63;65.82;101738.38;4958621;28;45264;-51
2021/11/07 09:25:05;;;;;;;;;17.25;14.75;;;;;11.69;65.59;101735.72;5002695;28;45541;-51
2021/11/07 09:30:07;;;;;;;;;17.75;16.75;;;;;11.72;65.53;101750.66;4959918;28;45272;-51
2021/11/07 09:32:46;;;;;;;;;21.00;18.00;;;;;11.73;65.82;101747.13;4959911;28;45280;-47
2021/11/07 09:38:02;;;;;;;;;17.75;17.75;;;;;11.76;65.70;101754.16;4999123;28;45320;-48
2021/11/07 09:40:30;;;;;;;;;19.25;18.25;;;;;11.74;65.63;101733.09;4959186;28;45331;-51
2021/11/07 09:50:38;;;;;;;;;20.25;20.25;;;;;11.79;65.91;101739.22;5031490;27;45322;-46
2021/11/07 09:53:04;;;;;;;;;20.50;19.00;;;;;11.83;65.81;101735.69;4991097;28;45701;-49
2021/11/07 09:55:31;;;;;;;;;20.50;19.50;;;;;11.86;66.06;101737.44;4969370;28;46069;-49
2021/11/07 09:57:58;;;;;;;;;21.50;21.50;;;;;11.84;65.84;101740.06;4959322;28;45258;-47
2021/11/07 10:00:31;;;;;;;;;20.75;19.25;;;;;11.89;65.92;101749.75;4958251;28;45445;-56
2021/11/07 10:02:57;;;;;;;;;20.00;17.25;;;;;11.91;66.19;101756.75;4959145;28;45243;-49
2021/11/07 10:05:25;;;;;;;;;20.75;19.00;;;;;11.94;66.21;101753.22;4959117;28;46127;-48
2021/11/07 10:08:03;;;;;;;;;20.00;18.75;;;;;11.95;66.07;101747.06;4959391;28;45452;-49
2021/11/07 10:10:34;;;;;;;;;20.50;19.00;;;;;12.01;65.84;101753.22;4958701;28;45472;-50
2021/11/07 10:13:21;;;;;;;;;16.75;15.75;;;;;12.05;66.30;101753.19;4973807;28;45351;-47
2021/11/07 10:15:49;;;;;;;;;17.00;16.50;;;;;12.09;66.19;101766.38;4957901;28;47174;-50
2021/11/07 10:21:25;;;;;;;;;18.50;16.25;;;;;12.26;66.42;101766.28;4968252;28;45370;-50
2021/11/07 10:24:04;;;;;;;;;18.25;18.00;;;;;12.34;66.54;101767.13;4976425;27;45366;-52
2021/11/07 10:26:34;;;;;;;;;17.50;15.50;;;;;12.35;66.47;101760.09;4958778;28;46554;-49
2021/11/07 10:29:02;;;;;;;;;17.00;14.00;;;;;12.48;66.71;101758.28;4956964;28;46124;-44
2021/11/07 10:31:34;;;;;;;;;16.50;15.75;;;;;12.52;66.77;101737.13;4959102;28;45363;-45
2021/11/07 10:34:21;;;;;;;;;13.75;13.25;;;;;12.61;66.90;101765.19;4959167;28;45419;-49
2021/11/07 10:53:12;;;;;;;;;17.50;16.75;;;;;13.23;66.58;101759.47;4972482;28;45383;-52
2021/11/07 10:55:42;;;;;;;;;17.25;15.75;;;;;13.32;66.64;101769.94;4979899;28;45323;-47
2021/11/07 10:58:07;;;;;;;;;14.50;13.50;;;;;13.40;66.24;101772.53;4967139;28;47333;-47
2021/11/07 11:00:44;;;;;;;;;15.00;15.00;;;;;13.47;66.54;101760.16;4977800;28;45367;-46
2021/11/07 11:03:21;;;;;;;;;14.00;13.75;;;;;13.57;66.18;101758.28;4993182;28;45465;-48
2021/11/07 11:06:13;;;;;;;;;15.50;15.50;;;;;13.63;66.54;101753.84;4977818;28;45430;-48
2021/11/07 11:08:41;;;;;;;;;15.00;14.75;;;;;13.71;66.02;101760.78;4977849;28;46304;-49
2021/11/07 11:11:21;;;;;;;;;15.00;11.50;;;;;13.78;66.31;101751.91;4977075;28;45239;-47
2021/11/07 11:14:08;;;;;;;;;22.00;20.50;;;;;13.85;66.29;101748.31;4977660;28;45471;-49
2021/11/07 11:19:48;;;;;;;;;9.75;7.25;;;;;13.99;66.06;101732.28;4975361;28;46062;-45
2021/11/07 11:25:14;;;;;;;;;10.50;7.00;;;;;14.19;65.56;101721.44;4978016;28;45416;-45
2021/11/07 11:30:28;;;;;;;;;8.25;4.00;;;;;14.33;65.44;101718.59;4977587;28;45756;-47
2021/11/07 11:33:09;;;;;;;;;6.75;5.50;;;;;14.40;65.00;101722.91;4968730;28;45444;-48
2021/11/07 11:43:07;;;;;;;;;6.00;4.25;;;;;14.57;64.59;101700.63;4961960;28;45297;-47
2021/11/07 11:45:37;;;;;;;;;5.00;4.00;;;;;14.57;64.70;101706.78;4958197;28;45600;-50
2021/11/07 11:55:50;;;;;;;;;6.00;6.00;;;;;14.62;64.10;101699.63;4958311;28;45274;-47
2021/11/07 11:58:34;;;;;;;;;7.50;6.75;;;;;14.67;63.64;101712.84;4957906;28;45401;-46
2021/11/07 12:01:07;;;;;;;;;8.00;6.00;;;;;14.65;63.37;101708.47;4957914;28;45361;-46
2021/11/07 12:06:35;;;;;;;;;8.00;6.50;;;;;14.66;63.40;101704.94;4957803;28;45299;-47
2021/11/07 12:09:26;;;;;;;;;6.75;5.00;;;;;14.66;63.38;101718.16;4957819;28;45485;-49
2021/11/07 12:14:34;;;;;;;;;9.50;7.00;;;;;14.66;63.14;101710.22;4957816;28;45289;-46
2021/11/07 12:17:05;;;;;;;;;7.50;5.25;;;;;14.68;62.80;101713.69;4956717;28;45408;-47
2021/11/07 12:19:42;;;;;;;;;6.25;5.50;;;;;14.70;62.59;101702.19;4960557;28;45543;-48
2021/11/07 12:22:10;;;;;;;;;6.75;5.25;;;;;14.76;63.09;101706.53;4986252;28;46307;-49
2021/11/07 12:24:58;;;;;;;;;6.25;5.00;;;;;14.79;63.02;101704.72;4966705;28;45454;-46
2021/11/07 12:27:28;;;;;;;;;7.75;6.50;;;;;14.86;62.80;101700.19;4955956;28;45260;-50
2021/11/07 12:30:19;;;;;;;;;5.00;3.50;;;;;14.90;62.30;101695.72;4956197;28;45560;-49
2021/11/07 12:32:47;;;;;;;;;9.00;8.00;;;;;14.97;62.41;101697.34;4963123;28;47221;-49
2021/11/07 12:35:29;;;;;;;;;6.50;6.50;;;;;15.06;62.29;101683.09;4970085;28;45307;-49
2021/11/07 12:40:59;;;;;;;;;4.25;2.50;;;;;15.22;62.09;101694.25;4977011;28;45311;-46
2021/11/07 12:43:30;;;;;;;;;7.25;4.50;;;;;15.28;61.61;101694.13;4958706;28;47116;-47
2021/11/07 12:46:08;;;;;;;;;4.00;3.25;;;;;15.32;61.33;101689.66;4957492;28;45213;-50
2021/11/07 12:48:47;;;;;;;;;5.50;4.75;;;;;15.36;61.58;101696.66;4992102;28;45434;-49
2021/11/07 12:51:17;;;;;;;;;6.50;5.25;;;;;15.38;61.35;101689.56;5001689;27;45313;-49
2021/11/07 12:53:57;;;;;;;;;11.25;7.75;;;;;15.42;60.90;101688.56;4957265;28;46312;-49
2021/11/07 12:56:46;;;;;;;;;8.25;4.50;;;;;15.45;60.92;101680.59;4957149;27;45332;-46
2021/11/07 12:59:19;;;;;;;;;2.25;1.00;;;;;15.46;61.08;101682.34;4957337;28;45498;-47
2021/11/07 13:02:07;;;;;;;;;8.00;6.25;;;;;15.54;60.90;101677.75;4957050;28;45379;-49
2021/11/07 13:05:07;;;;;;;;;11.25;7.50;;;;;15.61;60.55;101681.16;4956782;28;46028;-47
2021/11/07 13:34:34;;;;;;;;;7.00;5.00;;;;;16.46;59.25;101674.00;4979137;28;45327;-52
2021/11/07 13:37:03;;;;;;;;;6.00;4.00;;;;;16.50;59.14;101673.06;5004411;28;45884;-51
2021/11/07 13:39:32;;;;;;;;;6.00;6.00;;;;;16.56;59.22;101664.94;4979355;28;45288;-50
2021/11/07 13:42:22;;;;;;;;;6.00;4.00;;;;;16.63;59.25;101675.38;4979427;28;45335;-49
2021/11/07 13:45:02;;;;;;;;;8.25;5.25;;;;;16.66;59.00;101670.88;4978838;28;45435;-51
2021/11/07 13:47:43;;;;;;;;;4.25;4.25;;;;;16.68;58.67;101665.53;4971912;28;46218;-48
2021/11/07 13:50:16;;;;;;;;;6.25;3.75;;;;;16.67;58.74;101671.75;5045573;28;45442;-51
2021/11/07 13:52:43;;;;;;;;;6.25;5.00;;;;;16.64;58.23;101666.50;4985583;28;45483;-51
2021/11/07 13:55:30;;;;;;;;;5.50;4.25;;;;;16.63;58.32;101673.63;4959274;28;45420;-46
2021/11/07 13:58:08;;;;;;;;;4.00;3.00;;;;;16.60;58.26;101672.81;4962934;28;47002;-52
2021/11/07 14:00:36;;;;;;;;;3.50;3.00;;;;;16.54;58.12;101685.31;4978544;28;45404;-49
2021/11/07 14:03:02;;;;;;;;;5.25;4.50;;;;;16.50;58.16;101675.69;4960559;28;45440;-50
2021/11/07 14:05:27;;;;;;;;;5.50;4.25;;;;;16.50;57.94;101667.75;4959394;28;45308;-50
2021/11/07 14:08:02;;;;;;;;;4.50;3.50;;;;;16.44;57.71;101664.34;4959420;28;45221;-50
2021/11/07 14:10:30;;;;;;;;;8.00;5.50;;;;;16.40;57.67;101660.88;4960325;28;45440;-51